createdAt,value
2019-05-14T00:02:07.575Z,15.70
2019-05-14T00:04:42.247Z,15.70
2019-05-14T00:07:16.065Z,15.70
2019-05-14T00:09:48.078Z,15.70
2019-05-14T00:12:22.122Z,15.60
2019-05-14T00:14:54.714Z,15.50
2019-05-14T00:17:27.210Z,15.40
2019-05-14T00:20:07.182Z,15.20
2019-05-14T00:22:33.563Z,15.20
2019-05-14T00:25:05.779Z,15.10
2019-05-14T00:27:38.419Z,15.00
2019-05-14T00:30:12.960Z,14.80
2019-05-14T00:32:45.438Z,14.70
2019-05-14T00:37:53.920Z,14.60
2019-05-14T00:40:31.479Z,14.50
2019-05-14T00:43:05.528Z,14.50
2019-05-14T00:45:41.767Z,14.50
2019-05-14T00:48:17.760Z,14.40
2019-05-14T00:50:51.702Z,14.40
2019-05-14T00:53:24.961Z,14.50
2019-05-14T00:55:58.453Z,14.50
2019-05-14T00:58:31.235Z,14.60
2019-05-14T01:01:03.144Z,14.50
2019-05-14T01:03:35.157Z,14.60
2019-05-14T01:06:07.594Z,14.60
2019-05-14T01:08:42.432Z,14.50
2019-05-14T01:11:15.061Z,14.50
2019-05-14T01:13:48.357Z,14.60
2019-05-14T01:16:22.507Z,14.70
2019-05-14T01:18:53.758Z,14.80
2019-05-14T01:21:28.486Z,14.70
2019-05-14T01:24:02.065Z,14.60
2019-05-14T01:26:33.585Z,14.60
2019-05-14T01:29:06.156Z,14.60
2019-05-14T01:31:38.951Z,14.60
2019-05-14T01:34:12.356Z,14.60
2019-05-14T01:36:45.047Z,14.60
2019-05-14T01:39:17.432Z,14.50
2019-05-14T01:41:51.751Z,14.50
2019-05-14T01:44:25.190Z,14.60
2019-05-14T01:46:57.680Z,14.60
2019-05-14T01:49:31.841Z,14.60
2019-05-14T01:52:04.985Z,14.50
2019-05-14T01:54:37.277Z,14.50
2019-05-14T01:57:11.599Z,14.50
2019-05-14T01:59:54.322Z,14.60
2019-05-14T02:02:26.318Z,14.50
2019-05-14T02:04:58.775Z,14.50
2019-05-14T02:07:31.449Z,14.40
2019-05-14T02:10:04.520Z,14.30
2019-05-14T02:12:36.484Z,14.30
2019-05-14T02:15:09.183Z,14.20
2019-05-14T02:17:41.681Z,14.30
2019-05-14T02:20:13.720Z,14.30
2019-05-14T02:22:47.041Z,14.30
2019-05-14T02:25:21.554Z,14.40
2019-05-14T02:27:54.712Z,14.40
2019-05-14T02:30:41.430Z,14.50
2019-05-14T02:33:00.354Z,14.40
2019-05-14T02:35:32.373Z,14.40
2019-05-14T02:38:05.784Z,14.40
2019-05-14T02:40:40.396Z,14.40
2019-05-14T02:43:12.288Z,14.30
2019-05-14T02:46:02.054Z,14.30
2019-05-14T02:48:20.358Z,14.20
2019-05-14T02:50:52.456Z,14.20
2019-05-14T02:53:25.094Z,14.20
2019-05-14T02:55:59.246Z,14.20
2019-05-14T02:58:30.904Z,14.20
2019-05-14T03:01:02.956Z,14.20
2019-05-14T03:03:34.535Z,14.20
2019-05-14T03:06:09.453Z,14.10
2019-05-14T03:08:40.675Z,14.20
2019-05-14T03:11:13.504Z,14.20
2019-05-14T03:13:49.290Z,14.10
2019-05-14T03:16:29.293Z,14.10
2019-05-14T03:18:54.141Z,14.10
2019-05-14T03:21:26.308Z,14.00
2019-05-14T03:24:00.816Z,13.90
2019-05-14T03:26:32.691Z,13.90
2019-05-14T03:29:04.660Z,14.00
2019-05-14T03:31:41.884Z,14.00
2019-05-14T03:34:13.600Z,14.10
2019-05-14T03:36:44.386Z,14.10
2019-05-14T03:39:19.075Z,14.20
2019-05-14T03:41:50.637Z,14.20
2019-05-14T03:44:23.139Z,14.30
2019-05-14T03:47:00.761Z,14.40
2019-05-14T03:49:30.063Z,14.30
2019-05-14T03:52:03.630Z,14.30
2019-05-14T03:54:40.237Z,14.40
2019-05-14T03:57:11.806Z,14.40
2019-05-14T03:59:43.840Z,14.50
2019-05-14T04:02:19.593Z,14.50
2019-05-14T04:04:50.589Z,14.60
2019-05-14T04:07:23.782Z,14.70
2019-05-14T04:09:59.514Z,14.90
2019-05-14T04:12:35.464Z,15.10
2019-05-14T04:15:09.844Z,15.30
2019-05-14T04:17:43.723Z,15.50
2019-05-14T04:20:15.877Z,15.60
2019-05-14T04:22:51.154Z,15.70
2019-05-14T04:25:23.584Z,16.00
2019-05-14T04:27:59.688Z,16.10
2019-05-14T04:30:31.783Z,16.10
2019-05-14T04:33:14.753Z,16.20
2019-05-14T04:35:49.010Z,16.30
2019-05-14T04:38:21.475Z,16.40
2019-05-14T04:40:53.763Z,16.60
2019-05-14T04:43:25.872Z,16.70
2019-05-14T04:45:59.362Z,16.80
2019-05-14T04:48:37.647Z,17.00
2019-05-14T04:51:09.795Z,17.10
2019-05-14T04:53:41.203Z,17.00
2019-05-14T04:56:14.905Z,17.00
2019-05-14T04:58:49.698Z,17.10
2019-05-14T05:01:21.783Z,17.20
2019-05-14T05:03:55.183Z,17.20
2019-05-14T05:06:29.140Z,17.30
2019-05-14T05:09:01.722Z,17.30
2019-05-14T05:11:39.090Z,17.30
2019-05-14T05:14:09.555Z,17.20
2019-05-14T05:16:41.536Z,17.20
2019-05-14T05:19:13.112Z,17.10
2019-05-14T05:21:48.095Z,17.00
2019-05-14T05:24:21.243Z,17.00
2019-05-14T05:26:52.956Z,17.10
2019-05-14T05:29:28.427Z,17.10
2019-05-14T05:32:01.448Z,17.40
2019-05-14T05:34:33.053Z,18.60
2019-05-14T05:37:08.662Z,18.50
2019-05-14T05:39:42.371Z,19.20
2019-05-14T05:42:14.283Z,19.40
2019-05-14T05:44:48.355Z,19.00
2019-05-14T05:47:22.455Z,18.60
2019-05-14T05:49:54.776Z,18.60
2019-05-14T05:52:28.315Z,18.60
2019-05-14T05:55:00.508Z,19.30
2019-05-14T05:57:33.435Z,19.50
2019-05-14T06:00:09.416Z,20.00
2019-05-14T06:02:43.115Z,20.20
2019-05-14T06:05:15.544Z,20.90
2019-05-14T06:07:48.366Z,21.50
2019-05-14T06:10:21.950Z,21.00
2019-05-14T06:12:58.400Z,20.80
2019-05-14T06:15:44.458Z,21.40
2019-05-14T06:18:15.099Z,21.80
2019-05-14T06:20:38.893Z,22.20
2019-05-14T06:23:11.971Z,22.30
2019-05-14T06:25:44.738Z,22.70
2019-05-14T06:28:20.565Z,23.10
2019-05-14T06:30:52.170Z,23.10
2019-05-14T06:33:28.375Z,23.30
2019-05-14T06:36:00.016Z,23.80
2019-05-14T06:38:32.802Z,23.50
2019-05-14T06:41:05.123Z,23.30
2019-05-14T06:43:39.289Z,23.10
2019-05-14T06:46:11.608Z,23.80
2019-05-14T06:48:48.361Z,23.30
2019-05-14T06:51:20.374Z,23.50
2019-05-14T06:53:53.181Z,23.60
2019-05-14T06:56:28.256Z,23.40
2019-05-14T06:59:00.639Z,23.60
2019-05-14T07:01:32.550Z,22.70
2019-05-14T07:04:06.120Z,22.30
2019-05-14T07:06:41.248Z,22.70
2019-05-14T07:09:14.851Z,23.10
2019-05-14T07:11:49.235Z,23.30
2019-05-14T07:14:21.779Z,23.40
2019-05-14T07:16:54.863Z,23.90
2019-05-14T07:19:29.505Z,23.70
2019-05-14T07:22:02.211Z,23.40
2019-05-14T07:24:37.009Z,23.30
2019-05-14T07:27:09.609Z,23.60
2019-05-14T07:29:43.899Z,23.50
2019-05-14T07:32:18.898Z,23.30
2019-05-14T07:34:52.548Z,23.60
2019-05-14T07:37:24.279Z,23.30
2019-05-14T07:39:57.855Z,22.90
2019-05-14T07:42:32.832Z,22.80
2019-05-14T07:45:09.540Z,23.30
2019-05-14T07:47:43.928Z,23.10
2019-05-14T07:50:19.647Z,23.30
2019-05-14T07:52:51.720Z,23.10
2019-05-14T07:55:25.343Z,23.10
2019-05-14T07:57:58.750Z,23.00
2019-05-14T08:00:31.408Z,23.00
2019-05-14T08:03:04.970Z,22.90
2019-05-14T08:05:38.964Z,23.30
2019-05-14T08:08:12.610Z,23.50
2019-05-14T08:10:48.616Z,23.40
2019-05-14T08:13:20.547Z,23.50
2019-05-14T08:15:53.651Z,23.70
2019-05-14T08:18:28.712Z,23.90
2019-05-14T08:21:01.033Z,23.80
2019-05-14T08:23:33.328Z,23.70
2019-05-14T08:26:07.909Z,23.90
2019-05-14T08:28:40.624Z,23.80
2019-05-14T08:31:13.862Z,24.20
2019-05-14T08:33:48.927Z,24.70
2019-05-14T08:36:22.107Z,24.90
2019-05-14T08:38:54.735Z,24.70
2019-05-14T08:41:28.954Z,24.40
2019-05-14T08:44:02.150Z,24.60
2019-05-14T08:46:38.684Z,24.90
2019-05-14T08:49:10.264Z,25.40
2019-05-14T08:51:43.761Z,25.70
2019-05-14T08:54:18.855Z,25.60
2019-05-14T08:56:53.050Z,25.80
2019-05-14T08:59:28.644Z,25.70
2019-05-14T09:02:06.612Z,25.70
2019-05-14T09:04:42.404Z,25.90
2019-05-14T09:07:10.936Z,26.30
2019-05-14T09:09:44.207Z,26.60
2019-05-14T09:12:28.142Z,26.40
2019-05-14T09:15:00.775Z,27.10
2019-05-14T09:17:35.506Z,26.90
2019-05-14T09:20:12.103Z,26.40
2019-05-14T09:22:49.203Z,26.70
2019-05-14T09:25:21.763Z,27.00
2019-05-14T09:27:54.448Z,27.30
2019-05-14T09:30:29.119Z,27.20
2019-05-14T09:33:02.508Z,27.10
2019-05-14T09:35:38.446Z,27.00
2019-05-14T09:38:10.500Z,27.10
2019-05-14T09:40:43.334Z,27.20
2019-05-14T09:43:18.124Z,27.10
2019-05-14T09:45:51.419Z,27.10
2019-05-14T09:48:25.107Z,27.20
2019-05-14T09:50:58.891Z,27.20
2019-05-14T09:53:32.511Z,27.40
2019-05-14T09:56:04.604Z,27.70
2019-05-14T09:58:38.705Z,27.60
2019-05-14T10:01:13.255Z,28.00
2019-05-14T10:03:46.279Z,28.20
2019-05-14T10:06:20.904Z,28.10
2019-05-14T10:08:53.205Z,27.90
2019-05-14T10:11:28.788Z,27.90
2019-05-14T10:14:01.308Z,28.40
2019-05-14T10:16:34.794Z,28.30
2019-05-14T10:19:07.637Z,28.40
2019-05-14T10:21:42.923Z,28.40
2019-05-14T10:24:18.390Z,28.60
2019-05-14T10:26:52.104Z,28.40
2019-05-14T10:29:28.594Z,27.70
2019-05-14T10:32:02.818Z,27.30
2019-05-14T10:34:36.534Z,27.10
2019-05-14T10:37:10.861Z,27.30
2019-05-14T10:39:45.058Z,27.30
2019-05-14T10:42:20.924Z,27.50
2019-05-14T10:44:54.389Z,27.80
2019-05-14T10:47:29.195Z,27.60
2019-05-14T10:50:13.740Z,27.90
2019-05-14T10:52:48.850Z,28.40
2019-05-14T10:55:23.707Z,28.70
2019-05-14T10:58:37.745Z,28.90
2019-05-14T11:01:20.664Z,29.10
2019-05-14T11:03:52.835Z,29.50
2019-05-14T11:06:29.298Z,29.60
2019-05-14T11:09:02.007Z,29.40
2019-05-14T11:11:58.202Z,29.00
2019-05-14T11:14:31.921Z,29.00
2019-05-14T11:17:04.331Z,29.00
2019-05-14T11:19:39.024Z,29.00
2019-05-14T11:22:12.088Z,29.00
2019-05-14T11:24:46.144Z,28.90
2019-05-14T11:27:19.825Z,28.90
2019-05-14T11:29:52.246Z,29.10
2019-05-14T11:32:28.971Z,28.90
2019-05-14T11:35:00.114Z,29.00
2019-05-14T11:37:35.256Z,29.10
2019-05-14T11:40:08.987Z,29.10
2019-05-14T11:42:42.753Z,29.00
2019-05-14T11:45:17.360Z,29.00
2019-05-14T11:47:52.452Z,29.30
2019-05-14T11:50:25.444Z,29.40
2019-05-14T11:53:00.302Z,29.40
2019-05-14T11:55:33.408Z,29.40
2019-05-14T11:58:08.745Z,29.40
2019-05-14T12:00:44.326Z,29.20
2019-05-14T12:03:19.947Z,29.20
2019-05-14T12:05:54.098Z,29.30
2019-05-14T12:08:28.888Z,29.50
2019-05-14T12:11:01.520Z,29.80
2019-05-14T12:13:35.004Z,29.80
2019-05-14T12:16:08.601Z,29.80
2019-05-14T12:18:42.558Z,30.20
2019-05-14T12:21:15.419Z,30.00
2019-05-14T12:23:49.424Z,30.20
2019-05-14T12:26:22.679Z,30.20
2019-05-14T12:28:56.173Z,30.30
2019-05-14T12:31:31.122Z,30.30
2019-05-14T12:34:05.732Z,30.20
2019-05-14T12:36:39.641Z,30.00
2019-05-14T12:39:12.645Z,30.00
2019-05-14T12:41:44.861Z,30.00
2019-05-14T12:44:19.562Z,30.00
2019-05-14T12:46:52.741Z,30.00
2019-05-14T12:49:26.307Z,30.30
2019-05-14T12:52:00.758Z,30.10
2019-05-14T12:54:33.888Z,30.00
2019-05-14T12:57:05.418Z,30.00
2019-05-14T12:59:39.233Z,29.70
2019-05-14T13:02:12.243Z,29.50
2019-05-14T13:04:49.841Z,29.00
2019-05-14T13:07:24.987Z,28.50
2019-05-14T13:09:59.237Z,28.30
2019-05-14T13:12:32.169Z,28.10
2019-05-14T13:15:08.709Z,28.00
2019-05-14T13:17:42.763Z,27.50
2019-05-14T13:20:18.365Z,27.70
2019-05-14T13:22:51.714Z,27.60
2019-05-14T13:25:25.400Z,27.60
2019-05-14T13:27:59.465Z,27.80
2019-05-14T13:30:39.442Z,27.60
2019-05-14T13:33:19.211Z,27.70
2019-05-14T13:35:52.736Z,27.60
2019-05-14T13:38:27.178Z,27.40
2019-05-14T13:41:00.251Z,27.40
2019-05-14T13:43:32.787Z,26.90
2019-05-14T13:46:05.366Z,26.90
2019-05-14T13:48:43.178Z,26.80
2019-05-14T13:51:15.456Z,27.00
2019-05-14T13:53:51.328Z,27.00
2019-05-14T13:56:24.488Z,26.70
2019-05-14T13:58:59.113Z,26.60
2019-05-14T14:01:34.565Z,26.50
2019-05-14T14:04:12.514Z,26.50
2019-05-14T14:06:42.981Z,26.60
2019-05-14T14:09:17.253Z,27.00
2019-05-14T14:11:50.225Z,26.90
2019-05-14T14:14:23.330Z,27.20
2019-05-14T14:16:58.267Z,27.30
2019-05-14T14:19:31.144Z,27.20
2019-05-14T14:22:04.011Z,27.30
2019-05-14T14:24:38.699Z,27.30
2019-05-14T14:27:11.625Z,27.40
2019-05-14T14:29:45.019Z,27.80
2019-05-14T14:32:19.369Z,28.30
2019-05-14T14:34:53.715Z,28.60
2019-05-14T14:37:28.519Z,28.30
2019-05-14T14:40:02.022Z,28.30
2019-05-14T14:42:36.198Z,28.50
2019-05-14T14:45:09.681Z,28.50
2019-05-14T14:47:43.019Z,28.00
2019-05-14T14:50:19.213Z,27.50
2019-05-14T14:52:51.808Z,27.40
2019-05-14T14:55:25.103Z,27.00
2019-05-14T14:58:00.314Z,27.00
2019-05-14T15:00:33.928Z,26.80
2019-05-14T15:03:10.086Z,26.70
2019-05-14T15:05:44.665Z,26.70
2019-05-14T15:08:20.061Z,26.60
2019-05-14T15:10:53.410Z,26.70
2019-05-14T15:13:27.619Z,26.60
2019-05-14T15:16:01.097Z,26.50
2019-05-14T15:18:34.985Z,26.50
2019-05-14T15:21:09.665Z,26.50
2019-05-14T15:23:45.135Z,26.70
2019-05-14T15:26:19.298Z,26.80
2019-05-14T15:28:52.011Z,26.90
2019-05-14T15:31:25.284Z,27.10
2019-05-14T15:33:59.609Z,27.00
2019-05-14T15:36:35.893Z,27.20
2019-05-14T15:39:10.616Z,27.00
2019-05-14T15:41:45.433Z,26.80
2019-05-14T15:44:19.882Z,26.50
2019-05-14T15:46:53.114Z,26.30
2019-05-14T15:49:28.421Z,26.40
2019-05-14T15:52:03.108Z,26.40
2019-05-14T15:54:47.047Z,26.50
2019-05-14T15:57:19.447Z,26.50
2019-05-14T15:59:52.648Z,26.50
2019-05-14T16:02:29.587Z,26.40
2019-05-14T16:05:01.974Z,26.40
2019-05-14T16:07:39.047Z,26.30
2019-05-14T16:10:13.207Z,26.10
2019-05-14T16:12:45.735Z,25.90
2019-05-14T16:15:19.810Z,25.70
2019-05-14T16:18:06.309Z,25.60
2019-05-14T16:20:29.704Z,25.50
2019-05-14T16:23:02.942Z,25.30
2019-05-14T16:25:38.005Z,25.20
2019-05-14T16:28:11.657Z,25.20
2019-05-14T16:30:49.156Z,25.00
2019-05-14T16:33:22.663Z,24.90
2019-05-14T16:36:08.629Z,24.60
2019-05-14T16:38:44.176Z,24.50
2019-05-14T16:41:18.595Z,24.40
2019-05-14T16:43:51.692Z,24.40
2019-05-14T16:46:28.898Z,24.20
2019-05-14T16:49:03.422Z,24.20
2019-05-14T16:51:37.229Z,24.10
2019-05-14T16:54:11.057Z,24.00
2019-05-14T16:56:52.878Z,23.90
2019-05-14T16:59:25.956Z,23.80
2019-05-14T17:02:09.349Z,23.80
2019-05-14T17:04:43.542Z,23.60
2019-05-14T17:07:28.903Z,23.60
2019-05-14T17:10:04.321Z,23.50
2019-05-14T17:12:52.499Z,23.40
2019-05-14T17:15:18.031Z,23.30
2019-05-14T17:17:50.535Z,23.20
2019-05-14T17:20:24.505Z,23.10
2019-05-14T17:22:59.468Z,23.00
2019-05-14T17:25:31.744Z,23.00
2019-05-14T17:28:05.156Z,22.90
2019-05-14T17:30:38.505Z,22.80
2019-05-14T17:33:13.254Z,22.70
2019-05-14T17:35:48.317Z,22.50
2019-05-14T17:38:24.326Z,22.40
2019-05-14T17:40:59.825Z,22.30
2019-05-14T17:43:33.044Z,22.20
2019-05-14T17:46:06.415Z,22.10
2019-05-14T17:48:39.164Z,22.00
2019-05-14T17:51:13.029Z,21.90
2019-05-14T17:53:48.137Z,21.80
2019-05-14T17:56:23.046Z,21.80
2019-05-14T17:58:57.936Z,21.70
2019-05-14T18:01:31.806Z,21.50
2019-05-14T18:04:04.374Z,21.40
2019-05-14T18:06:37.427Z,21.30
2019-05-14T18:09:10.657Z,21.20
2019-05-14T18:11:43.360Z,21.20
2019-05-14T18:14:18.959Z,21.10
2019-05-14T18:16:55.508Z,21.00
2019-05-14T18:19:28.924Z,21.10
2019-05-14T18:22:03.262Z,21.10
2019-05-14T18:24:36.166Z,21.20
2019-05-14T18:27:11.300Z,21.10
2019-05-14T18:29:50.234Z,20.90
2019-05-14T18:32:23.077Z,20.80
2019-05-14T18:34:58.112Z,20.60
2019-05-14T18:37:30.384Z,20.60
2019-05-14T18:40:04.427Z,20.40
2019-05-14T18:42:39.769Z,20.40
2019-05-14T18:45:13.927Z,20.30
2019-05-14T18:47:48.499Z,20.20
2019-05-14T18:50:21.555Z,20.10
2019-05-14T18:52:54.608Z,20.10
2019-05-14T18:55:29.325Z,20.10
2019-05-14T18:58:03.548Z,20.00
2019-05-14T19:00:35.391Z,19.80
2019-05-14T19:03:09.539Z,19.80
2019-05-14T19:05:43.586Z,19.80
2019-05-14T19:08:17.944Z,19.70
2019-05-14T19:10:52.389Z,19.60
2019-05-14T19:13:25.588Z,19.60
2019-05-14T19:15:59.769Z,19.60
2019-05-14T19:18:34.276Z,19.60
2019-05-14T19:21:09.531Z,19.60
2019-05-14T19:23:45.327Z,19.50
2019-05-14T19:26:33.107Z,19.50
2019-05-14T19:28:53.431Z,19.50
2019-05-14T19:31:27.857Z,19.40
2019-05-14T19:34:00.664Z,19.50
2019-05-14T19:36:34.596Z,19.40
2019-05-14T19:39:09.727Z,19.40
2019-05-14T19:41:43.660Z,19.40
2019-05-14T19:44:19.089Z,19.40
2019-05-14T19:46:51.679Z,19.40
2019-05-14T19:49:25.614Z,19.40
2019-05-14T19:52:00.517Z,19.40
2019-05-14T19:54:32.900Z,19.30
2019-05-14T19:57:05.927Z,19.30
2019-05-14T19:59:39.487Z,19.40
2019-05-14T20:02:12.364Z,19.40
2019-05-14T20:04:46.444Z,19.50
2019-05-14T20:07:20.339Z,19.40
2019-05-14T20:09:54.341Z,19.50
2019-05-14T20:12:28.768Z,19.40
2019-05-14T20:15:03.570Z,19.40
2019-05-14T20:20:39.387Z,19.30
2019-05-14T20:23:41.067Z,19.30
2019-05-14T20:26:16.175Z,19.30
2019-05-14T20:28:53.425Z,19.40
2019-05-14T20:31:29.533Z,19.40
2019-05-14T20:34:02.383Z,19.40
2019-05-14T20:36:38.781Z,19.40
2019-05-14T20:39:12.148Z,19.40
2019-05-14T20:41:48.883Z,19.30
2019-05-14T20:44:22.143Z,19.30
2019-05-14T20:46:58.226Z,19.30
2019-05-14T20:49:32.071Z,19.20
2019-05-14T20:52:08.608Z,19.20
2019-05-14T20:54:41.951Z,19.10
2019-05-14T20:57:26.387Z,19.00
2019-05-14T20:59:50.183Z,18.90
2019-05-14T21:02:23.003Z,19.00
2019-05-14T21:04:56.013Z,19.00
2019-05-14T21:07:30.358Z,18.90
2019-05-14T21:10:02.877Z,19.00
2019-05-14T21:12:35.423Z,18.90
2019-05-14T21:15:09.989Z,18.90
2019-05-14T21:17:43.727Z,18.90
2019-05-14T21:20:18.451Z,18.90
2019-05-14T21:22:51.867Z,18.90
2019-05-14T21:25:26.144Z,18.90
2019-05-14T21:28:00.003Z,18.80
2019-05-14T21:30:35.363Z,18.70
2019-05-14T21:33:09.154Z,18.70
2019-05-14T21:35:42.204Z,18.60
2019-05-14T21:38:14.745Z,18.60
2019-05-14T21:40:49.964Z,18.60
2019-05-14T21:43:24.252Z,18.60
2019-05-14T21:45:58.498Z,18.50
2019-05-14T21:48:31.214Z,18.50
2019-05-14T21:51:04.293Z,18.40
2019-05-14T21:53:38.687Z,18.40
2019-05-14T21:56:11.498Z,18.40
2019-05-14T21:58:45.144Z,18.40
2019-05-14T22:01:18.856Z,18.30
2019-05-14T22:03:51.424Z,18.20
2019-05-14T22:06:24.056Z,18.30
2019-05-14T22:09:00.369Z,18.30
2019-05-14T22:11:33.314Z,18.10
2019-05-14T22:14:07.920Z,18.10
2019-05-14T22:16:42.663Z,18.10
2019-05-14T22:19:16.326Z,18.00
2019-05-14T22:21:50.540Z,17.90
2019-05-14T22:24:23.506Z,17.80
2019-05-14T22:26:58.190Z,17.80
2019-05-14T22:29:34.390Z,17.70
2019-05-14T22:32:08.227Z,17.70
2019-05-14T22:34:41.443Z,17.70
2019-05-14T22:37:14.035Z,17.60
2019-05-14T22:39:47.969Z,17.50
2019-05-14T22:42:20.179Z,17.40
2019-05-14T22:44:53.515Z,17.40
2019-05-14T22:47:28.514Z,17.30
2019-05-14T22:50:01.250Z,17.20
2019-05-14T22:52:34.410Z,17.20
2019-05-14T22:55:06.741Z,17.10
2019-05-14T22:57:40.033Z,17.10
2019-05-14T23:00:13.906Z,17.00
2019-05-14T23:02:48.761Z,17.10
2019-05-14T23:05:21.071Z,17.00
2019-05-14T23:07:53.871Z,17.00
2019-05-14T23:10:26.336Z,17.00
2019-05-14T23:12:58.882Z,17.00
2019-05-14T23:15:32.072Z,17.00
2019-05-14T23:18:03.874Z,16.90
2019-05-14T23:20:39.034Z,17.00
2019-05-14T23:23:10.708Z,17.10
2019-05-14T23:25:44.220Z,17.20
2019-05-14T23:28:19.067Z,17.30
2019-05-14T23:30:51.981Z,17.40
2019-05-14T23:33:24.138Z,17.40
2019-05-14T23:35:57.081Z,17.40
2019-05-14T23:38:29.907Z,17.40
2019-05-14T23:41:02.878Z,17.40
2019-05-14T23:43:38.837Z,17.40
2019-05-14T23:46:11.438Z,17.50
2019-05-14T23:48:44.532Z,17.50
2019-05-14T23:51:18.233Z,17.50
2019-05-14T23:53:51.513Z,17.40
2019-05-14T23:56:24.775Z,17.30
2019-05-14T23:59:01.378Z,17.20
